Time;durP1;ratioP1;P1;durP2;ratioP2;P2;SDS_P1;SDS_P2;PMS_P1;PMS_P2;Temp;Humidity;BMP_temperature;BMP_pressure;BME280_temperature;BME280_humidity;BME280_pressure;Samples;Min_cycle;Max_cycle;Signal;HPM_P1;HPM_P2
2021/12/29 00:00:15;;;;;;;5.72;4.78;;;;;;;10.14;76.43;99239.53;682500;28;1284;-83
2021/12/29 00:00:36;;;;;;;5.95;4.80;;;;;;;10.11;76.47;99243.00;679831;29;1429;-83
2021/12/29 00:00:56;;;;;;;5.90;4.93;;;;;;;10.15;76.19;99236.91;679966;29;1297;-84
2021/12/29 00:01:17;;;;;;;6.65;5.07;;;;;;;10.13;76.49;99245.59;679592;29;1155;-84
2021/12/29 00:01:38;;;;;;;6.18;5.18;;;;;;;10.19;76.21;99247.38;682672;29;772;-83
2021/12/29 00:01:58;;;;;;;6.80;5.30;;;;;;;10.27;76.31;99253.53;679917;29;1142;-83
2021/12/29 00:02:19;;;;;;;6.60;5.40;;;;;;;10.15;76.34;99242.13;677135;29;1157;-84
2021/12/29 00:02:40;;;;;;;6.75;5.10;;;;;;;10.26;76.33;99246.56;683666;28;1512;-83
2021/12/29 00:03:02;;;;;;;6.80;5.25;;;;;;;10.27;76.06;99259.59;685203;28;1019;-84
2021/12/29 00:03:41;;;;;;;6.10;5.10;;;;;;;10.31;75.88;99254.41;680580;28;1094;-84
2021/12/29 00:04:01;;;;;;;6.60;5.10;;;;;;;10.29;75.90;99249.19;677057;29;1525;-83
2021/12/29 00:04:46;;;;;;;7.53;5.40;;;;;;;10.38;75.88;99257.03;680542;28;1058;-83
2021/12/29 00:05:08;;;;;;;7.75;5.65;;;;;;;10.50;75.22;99257.97;682653;29;1102;-83
2021/12/29 00:05:29;;;;;;;8.90;5.50;;;;;;;10.45;75.48;99257.06;683975;28;1952;-83
2021/12/29 00:05:50;;;;;;;8.70;5.35;;;;;;;10.41;75.44;99269.22;676331;29;1598;-83
2021/12/29 00:06:10;;;;;;;9.13;5.63;;;;;;;10.35;75.52;99257.03;682646;29;1048;-83
2021/12/29 00:06:31;;;;;;;7.63;5.57;;;;;;;10.38;75.43;99251.84;679706;28;1208;-83
2021/12/29 00:06:51;;;;;;;7.80;5.60;;;;;;;10.37;75.18;99255.31;679933;29;1139;-83
2021/12/29 00:07:12;;;;;;;6.95;5.22;;;;;;;10.39;75.35;99258.78;672071;29;1170;-83
2021/12/29 00:07:33;;;;;;;7.50;5.30;;;;;;;10.38;75.47;99256.19;679412;29;1968;-83
2021/12/29 00:07:53;;;;;;;7.18;5.00;;;;;;;10.36;75.41;99258.78;682467;29;1336;-83
2021/12/29 00:08:14;;;;;;;7.00;5.10;;;;;;;10.33;75.50;99263.09;682486;29;1055;-84
2021/12/29 00:08:35;;;;;;;8.75;5.40;;;;;;;10.31;75.68;99252.66;679972;29;1151;-84
2021/12/29 00:08:56;;;;;;;9.50;5.38;;;;;;;10.28;75.52;99269.16;680000;29;1066;-84
2021/12/29 00:09:16;;;;;;;9.47;5.40;;;;;;;10.10;76.14;99261.22;679573;28;1336;-84
2021/12/29 00:09:39;;;;;;;6.67;5.00;;;;;;;10.10;76.13;99262.09;682010;29;1175;-83
2021/12/29 00:10:01;;;;;;;5.85;5.10;;;;;;;10.09;76.44;99255.13;677273;29;1095;-82
2021/12/29 00:10:22;;;;;;;6.20;5.20;;;;;;;10.04;76.54;99240.31;679926;29;1291;-84
2021/12/29 00:10:43;;;;;;;6.93;5.60;;;;;;;10.15;76.36;99268.19;677331;29;1530;-84
2021/12/29 00:11:04;;;;;;;7.68;5.80;;;;;;;10.19;76.26;99270.84;679800;29;1300;-83
2021/12/29 00:11:26;;;;;;;7.20;5.60;;;;;;;10.17;76.46;99264.72;677667;29;1379;-83
2021/12/29 00:11:46;;;;;;;6.50;5.22;;;;;;;10.23;76.45;99257.84;680264;28;1520;-84
2021/12/29 00:12:10;;;;;;;7.22;5.55;;;;;;;10.20;76.21;99256.94;679889;29;1194;-84
2021/12/29 00:12:34;;;;;;;7.50;5.50;;;;;;;10.22;76.16;99263.03;675176;29;1370;-83
2021/12/29 00:12:56;;;;;;;7.00;5.30;;;;;;;10.26;76.14;99246.56;673923;29;2559;-84
2021/12/29 00:13:19;;;;;;;6.15;5.15;;;;;;;10.36;75.89;99266.59;676246;29;1629;-83
2021/12/29 00:13:39;;;;;;;6.22;5.00;;;;;;;10.51;75.88;99268.41;682334;29;2942;-84
2021/12/29 00:14:00;;;;;;;5.60;5.00;;;;;;;10.40;75.46;99262.28;679564;29;1320;-83
2021/12/29 00:14:24;;;;;;;5.47;4.88;;;;;;;10.33;75.64;99258.75;675688;29;1231;-83
2021/12/29 00:14:44;;;;;;;5.85;4.90;;;;;;;10.40;75.50;99257.06;679901;28;1370;-84
2021/12/29 00:15:06;;;;;;;6.17;4.80;;;;;;;10.44;75.67;99263.16;678940;29;2024;-83
2021/12/29 00:15:27;;;;;;;6.65;4.70;;;;;;;10.50;75.13;99260.59;676806;29;1930;-83
2021/12/29 00:15:48;;;;;;;5.63;4.50;;;;;;;10.51;75.02;99264.94;676584;29;1211;-84
2021/12/29 00:16:24;;;;;;;6.80;4.73;;;;;;;10.68;74.98;99268.47;677211;29;1307;-83
2021/12/29 00:16:44;;;;;;;8.00;5.15;;;;;;;10.61;74.70;99273.63;681131;29;1354;-83
2021/12/29 00:17:05;;;;;;;7.18;5.10;;;;;;;10.51;74.98;99260.56;682277;29;1771;-83
2021/12/29 00:17:35;;;;;;;6.47;4.93;;;;;;;10.40;75.20;99265.75;674302;29;1417;-82
2021/12/29 00:17:57;;;;;;;6.78;4.90;;;;;;;10.40;75.32;99273.56;678120;29;1892;-83
2021/12/29 00:18:18;;;;;;;8.73;5.25;;;;;;;10.32;75.48;99259.63;679678;29;1122;-84
2021/12/29 00:18:38;;;;;;;8.43;5.40;;;;;;;10.39;75.38;99279.66;679970;29;1047;-83
2021/12/29 00:19:17;;;;;;;8.18;5.43;;;;;;;10.45;75.47;99272.72;680004;29;1294;-83
2021/12/29 00:19:38;;;;;;;6.32;4.90;;;;;;;10.41;75.40;99272.72;676605;29;1337;-83
2021/12/29 00:19:58;;;;;;;5.53;4.77;;;;;;;10.37;75.55;99272.66;679949;29;1255;-84
2021/12/29 00:20:22;;;;;;;5.80;4.88;;;;;;;10.28;75.39;99265.69;674892;29;1231;-84
2021/12/29 00:20:42;;;;;;;5.40;4.80;;;;;;;10.25;75.70;99260.44;677408;29;817;-83
2021/12/29 00:21:05;;;;;;;5.20;4.70;;;;;;;10.30;75.68;99263.97;677221;29;1141;-83
2021/12/29 00:21:26;;;;;;;5.32;4.80;;;;;;;10.26;76.06;99272.66;679352;29;1904;-84
2021/12/29 00:21:46;;;;;;;6.28;5.00;;;;;;;10.23;75.87;99270.88;680556;29;1844;-84
2021/12/29 00:22:07;;;;;;;6.00;4.90;;;;;;;10.26;75.74;99275.25;679957;29;1205;-85
2021/12/29 00:22:27;;;;;;;5.75;4.70;;;;;;;10.10;76.05;99267.31;681183;29;989;-84
2021/12/29 00:22:49;;;;;;;5.20;4.70;;;;;;;10.04;76.34;99255.97;682437;29;1076;-84
2021/12/29 00:23:09;;;;;;;5.38;4.80;;;;;;;10.06;76.32;99270.75;679944;29;1265;-84
2021/12/29 00:23:30;;;;;;;5.10;4.60;;;;;;;10.05;76.65;99269.00;681577;29;1089;-83
2021/12/29 00:23:50;;;;;;;5.60;4.30;;;;;;;10.02;76.45;99261.19;676927;29;1414;-83
2021/12/29 00:24:11;;;;;;;6.53;4.55;;;;;;;10.05;76.60;99270.72;682667;29;1004;-83
2021/12/29 00:24:31;;;;;;;6.93;4.90;;;;;;;10.06;76.99;99260.31;684918;28;1229;-84
2021/12/29 00:24:52;;;;;;;6.32;4.90;;;;;;;10.06;76.51;99275.97;685079;28;1374;-83
2021/12/29 00:25:13;;;;;;;5.47;4.55;;;;;;;10.10;76.60;99279.47;682658;29;1281;-83
2021/12/29 00:25:34;;;;;;;4.75;4.18;;;;;;;10.04;77.15;99272.50;681305;29;1682;-83
2021/12/29 00:25:54;;;;;;;5.20;4.10;;;;;;;10.06;77.07;99272.50;677241;29;1127;-83
2021/12/29 00:26:15;;;;;;;6.10;4.38;;;;;;;9.97;76.76;99266.34;679858;29;1212;-84
2021/12/29 00:26:35;;;;;;;7.00;4.80;;;;;;;10.00;77.22;99278.53;682108;29;1250;-83
2021/12/29 00:26:56;;;;;;;6.47;4.77;;;;;;;9.95;77.05;99272.44;684625;28;1797;-84
2021/12/29 00:27:16;;;;;;;6.00;4.55;;;;;;;9.99;77.12;99267.25;677134;29;1934;-83
2021/12/29 00:27:38;;;;;;;5.45;4.15;;;;;;;10.02;77.16;99271.63;682582;29;882;-83
2021/12/29 00:28:01;;;;;;;5.03;3.97;;;;;;;10.08;76.98;99271.63;677277;29;956;-82
2021/12/29 00:28:22;;;;;;;4.60;3.83;;;;;;;10.01;76.91;99277.66;677167;29;1332;-83
2021/12/29 00:28:42;;;;;;;4.80;4.00;;;;;;;10.09;77.06;99270.75;687777;28;1392;-82
2021/12/29 00:29:03;;;;;;;4.63;4.10;;;;;;;10.05;76.94;99279.44;682350;28;1164;-83
2021/12/29 00:29:23;;;;;;;4.43;4.03;;;;;;;10.06;76.96;99281.19;674246;29;1183;-84
2021/12/29 00:30:07;;;;;;;4.32;3.88;;;;;;;10.03;76.89;99265.53;677246;28;1196;-83
2021/12/29 00:30:46;;;;;;;4.20;3.80;;;;;;;10.00;76.75;99281.13;682482;28;1067;-84
2021/12/29 00:31:27;;;;;;;4.78;4.00;;;;;;;10.14;76.98;99278.63;687762;28;1523;-84
2021/12/29 00:32:06;;;;;;;4.10;3.70;;;;;;;10.28;76.34;99282.19;690446;28;1201;-83
2021/12/29 00:32:46;;;;;;;3.88;3.58;;;;;;;10.11;76.79;99274.28;682899;28;1207;-83
2021/12/29 00:33:25;;;;;;;4.20;3.80;;;;;;;10.20;76.76;99278.66;683590;28;1077;-82
2021/12/29 00:34:04;;;;;;;5.68;3.72;;;;;;;10.12;76.34;99273.41;686862;28;1587;-83
2021/12/29 00:34:48;;;;;;;5.45;3.50;;;;;;;10.00;76.56;99266.38;690088;28;1243;-83
2021/12/29 00:35:45;;;;;;;4.70;3.65;;;;;;;9.98;76.88;99267.22;677426;29;1336;-83
2021/12/29 00:36:26;;;;;;;3.75;3.45;;;;;;;9.96;77.01;99285.44;674564;29;1047;-83
2021/12/29 00:37:05;;;;;;;4.00;3.55;;;;;;;9.95;77.29;99278.50;676365;29;1750;-83
2021/12/29 00:37:44;;;;;;;5.45;3.70;;;;;;;9.99;77.04;99285.50;669295;29;1268;-83
2021/12/29 00:38:25;;;;;;;3.90;3.50;;;;;;;10.07;77.04;99297.69;675320;29;1718;-82
2021/12/29 00:39:04;;;;;;;3.88;3.30;;;;;;;10.04;76.85;99292.44;678253;29;1269;-83
2021/12/29 00:39:43;;;;;;;4.55;3.20;;;;;;;10.07;77.05;99285.53;674616;29;1288;-83
2021/12/29 00:40:40;;;;;;;4.03;3.30;;;;;;;10.01;77.11;99281.16;678271;28;1168;-83
2021/12/29 00:41:19;;;;;;;4.00;3.50;;;;;;;10.06;77.33;99296.81;683947;28;1221;-83
2021/12/29 00:42:19;;;;;;;3.83;3.22;;;;;;;10.09;77.31;99295.97;683517;28;1385;-82
2021/12/29 00:43:15;;;;;;;3.60;3.30;;;;;;;10.06;76.83;99293.34;677897;29;1001;-82
2021/12/29 00:43:55;;;;;;;3.40;3.10;;;;;;;10.04;76.84;99288.13;682328;29;982;-83
2021/12/29 00:44:35;;;;;;;3.80;3.10;;;;;;;10.09;76.87;99304.63;681601;29;1164;-82
2021/12/29 00:45:05;;;;;;;3.10;2.80;;;;;;;10.21;77.11;99306.44;680847;29;1116;-83
2021/12/29 00:45:27;;;;;;;3.10;2.90;;;;;;;10.14;76.61;99297.72;681784;28;2590;-82
2021/12/29 00:45:50;;;;;;;3.08;2.88;;;;;;;10.15;76.71;99298.63;682427;29;1017;-83
2021/12/29 00:46:12;;;;;;;3.35;3.05;;;;;;;10.13;76.88;99303.81;679525;29;2843;-82
2021/12/29 00:46:52;;;;;;;3.13;2.83;;;;;;;10.24;76.75;99305.63;680968;28;1452;-82
2021/12/29 00:47:13;;;;;;;3.00;2.80;;;;;;;10.23;76.60;99303.91;681901;28;1985;-82
2021/12/29 00:47:36;;;;;;;3.10;2.90;;;;;;;10.27;76.60;99300.47;687294;28;1964;-83
2021/12/29 00:47:56;;;;;;;3.35;3.05;;;;;;;10.13;76.41;99297.72;681998;29;1237;-82
2021/12/29 00:48:18;;;;;;;3.28;2.97;;;;;;;10.15;76.79;99302.09;685051;28;1070;-83
2021/12/29 00:48:43;;;;;;;3.30;3.00;;;;;;;10.13;76.78;99305.53;680313;29;808;-82
2021/12/29 00:49:05;;;;;;;3.10;2.80;;;;;;;10.20;76.76;99311.69;682259;29;1257;-82
2021/12/29 00:49:35;;;;;;;3.20;2.90;;;;;;;10.11;76.68;99295.13;676751;29;1081;-83
2021/12/29 00:49:58;;;;;;;3.22;2.60;;;;;;;10.24;76.57;99311.75;679348;29;1943;-82
2021/12/29 00:50:19;;;;;;;2.95;2.28;;;;;;;10.26;76.66;99312.59;679727;29;1174;-83
2021/12/29 00:50:41;;;;;;;2.50;2.30;;;;;;;10.30;76.43;99313.50;675202;29;1074;-83
2021/12/29 00:51:03;;;;;;;2.63;2.42;;;;;;;10.31;76.35;99302.19;679811;29;1172;-82
2021/12/29 00:51:24;;;;;;;3.00;2.80;;;;;;;10.24;76.29;99298.69;678894;29;1549;-82
2021/12/29 00:51:44;;;;;;;3.00;2.80;;;;;;;10.27;76.18;99321.31;677128;29;994;-83
2021/12/29 00:52:07;;;;;;;3.00;2.80;;;;;;;10.16;76.25;99308.19;675149;29;1332;-82
2021/12/29 00:52:28;;;;;;;3.22;2.92;;;;;;;10.16;76.47;99302.97;677048;29;1522;-82
2021/12/29 00:52:48;;;;;;;3.23;2.93;;;;;;;10.15;76.42;99299.47;679848;29;1125;-83
2021/12/29 00:53:09;;;;;;;3.03;2.83;;;;;;;10.08;76.55;99305.50;682537;29;968;-83
2021/12/29 00:53:30;;;;;;;2.55;2.35;;;;;;;10.22;76.70;99323.88;682429;29;1156;-82
2021/12/29 00:53:50;;;;;;;2.20;2.10;;;;;;;10.11;76.43;99310.75;682482;29;992;-82
2021/12/29 00:54:11;;;;;;;2.40;2.30;;;;;;;10.11;76.82;99315.97;679699;29;1179;-83
2021/12/29 00:54:33;;;;;;;2.80;2.60;;;;;;;10.17;76.63;99319.47;684327;28;1120;-83
2021/12/29 00:54:54;;;;;;;3.05;2.80;;;;;;;10.10;76.70;99321.16;682410;29;1094;-83
2021/12/29 00:55:16;;;;;;;3.20;2.58;;;;;;;10.08;76.72;99321.16;679726;29;1484;-82
2021/12/29 00:55:38;;;;;;;2.90;2.50;;;;;;;10.06;76.89;99314.22;674718;29;1207;-82
2021/12/29 00:55:59;;;;;;;3.13;2.60;;;;;;;10.07;77.00;99332.44;679849;29;1083;-82
2021/12/29 00:56:19;;;;;;;3.15;2.90;;;;;;;10.10;76.93;99318.56;678422;29;1545;-82
2021/12/29 00:56:40;;;;;;;3.03;2.83;;;;;;;10.06;76.86;99317.66;677090;29;1665;-83
2021/12/29 00:57:01;;;;;;;2.90;2.70;;;;;;;10.07;76.71;99323.75;678800;29;1617;-82
2021/12/29 00:57:21;;;;;;;2.80;2.60;;;;;;;10.01;76.93;99321.97;679909;29;1780;-83
2021/12/29 00:57:59;;;;;;;3.00;2.80;;;;;;;10.08;76.99;99325.50;679955;29;686;-84
2021/12/29 00:58:20;;;;;;;2.80;2.60;;;;;;;10.12;76.84;99330.75;681657;28;1945;-83
2021/12/29 00:58:40;;;;;;;2.60;2.50;;;;;;;10.16;76.70;99326.44;687874;28;1022;-84
2021/12/29 00:59:01;;;;;;;2.80;2.60;;;;;;;10.17;76.63;99335.09;680215;28;1306;-83
2021/12/29 00:59:23;;;;;;;2.70;2.50;;;;;;;10.19;77.01;99339.47;679140;29;1199;-83
2021/12/29 00:59:45;;;;;;;2.60;2.40;;;;;;;10.13;76.74;99323.78;677014;29;1949;-83
2021/12/29 01:00:12;;;;;;;2.60;2.40;;;;;;;10.17;76.70;99335.09;677097;29;1411;-84
2021/12/29 01:00:37;;;;;;;2.90;2.70;;;;;;;10.27;76.49;99340.41;681950;28;1617;-83
2021/12/29 01:00:58;;;;;;;3.00;2.80;;;;;;;10.24;76.48;99343.03;682550;29;1473;-83
2021/12/29 01:01:19;;;;;;;3.08;2.88;;;;;;;10.19;76.74;99333.41;679436;29;1353;-85
2021/12/29 01:01:40;;;;;;;3.00;2.70;;;;;;;10.16;76.59;99334.25;679942;29;812;-84
2021/12/29 01:02:00;;;;;;;3.10;2.70;;;;;;;10.21;76.70;99335.13;682390;28;1323;-83
2021/12/29 01:02:21;;;;;;;3.00;2.60;;;;;;;10.31;76.49;99354.34;682451;29;1105;-83
2021/12/29 01:02:43;;;;;;;2.65;2.45;;;;;;;10.25;76.52;99339.53;675531;29;1283;-84
2021/12/29 01:03:04;;;;;;;2.70;2.50;;;;;;;10.26;76.66;99340.44;679436;29;2051;-83
2021/12/29 01:03:26;;;;;;;2.70;2.50;;;;;;;10.27;76.34;99331.75;679037;29;1357;-83
2021/12/29 01:03:47;;;;;;;3.10;2.80;;;;;;;10.30;75.98;99344.78;679155;29;989;-83
2021/12/29 01:04:07;;;;;;;3.20;2.90;;;;;;;10.28;76.42;99336.94;674571;29;1151;-83
2021/12/29 01:04:28;;;;;;;3.10;2.90;;;;;;;10.29;76.24;99335.22;685089;28;1316;-83
2021/12/29 01:04:49;;;;;;;3.10;2.90;;;;;;;10.34;76.50;99353.50;684809;28;1130;-83
2021/12/29 01:05:10;;;;;;;3.30;3.10;;;;;;;10.34;76.27;99350.91;682369;28;1343;-83
2021/12/29 01:05:31;;;;;;;3.38;3.10;;;;;;;10.34;76.17;99349.19;683119;28;1521;-83
2021/12/29 01:05:52;;;;;;;3.15;2.95;;;;;;;10.32;76.34;99344.81;679842;29;1196;-83
2021/12/29 01:06:25;;;;;;;3.20;2.90;;;;;;;10.24;76.19;99336.91;679357;29;1627;-84
2021/12/29 01:06:47;;;;;;;3.17;2.88;;;;;;;10.32;76.15;99350.88;676998;29;1699;-83
2021/12/29 01:07:07;;;;;;;3.38;2.80;;;;;;;10.27;76.28;99343.03;674052;29;1489;-84
2021/12/29 01:07:28;;;;;;;3.70;3.00;;;;;;;10.33;76.24;99349.16;674490;29;1966;-83
2021/12/29 01:07:57;;;;;;;4.38;3.13;;;;;;;10.28;76.32;99338.69;679932;29;1283;-83
2021/12/29 01:08:17;;;;;;;3.70;3.20;;;;;;;10.26;76.17;99343.03;682207;29;1457;-83
2021/12/29 01:08:38;;;;;;;3.35;2.90;;;;;;;10.29;76.29;99350.88;680014;29;823;-83
2021/12/29 01:08:59;;;;;;;3.23;2.93;;;;;;;10.30;75.95;99352.59;682404;29;1031;-83
2021/12/29 01:09:19;;;;;;;3.10;2.90;;;;;;;10.28;76.19;99343.91;687093;28;1133;-83
2021/12/29 01:09:42;;;;;;;3.25;3.00;;;;;;;10.26;75.99;99356.94;687057;28;1320;-83
2021/12/29 01:10:06;;;;;;;3.05;2.85;;;;;;;10.31;76.23;99363.94;679639;29;1053;-83
2021/12/29 01:10:27;;;;;;;3.30;3.10;;;;;;;10.29;76.13;99353.47;677089;29;1490;-83
2021/12/29 01:10:48;;;;;;;3.70;3.40;;;;;;;10.34;76.23;99364.81;677273;29;1175;-83
2021/12/29 01:11:09;;;;;;;3.88;3.58;;;;;;;10.28;76.09;99355.19;679724;29;949;-83
2021/12/29 01:11:30;;;;;;;3.90;3.60;;;;;;;10.30;76.08;99357.81;684471;28;1261;-83
2021/12/29 01:11:55;;;;;;;4.07;3.75;;;;;;;10.33;76.14;99365.66;682806;28;1269;-84
2021/12/29 01:12:16;;;;;;;4.03;3.63;;;;;;;10.34;76.39;99370.03;681960;29;2074;-83
2021/12/29 01:12:38;;;;;;;4.07;3.67;;;;;;;10.33;76.23;99363.03;682157;29;1139;-83
2021/12/29 01:13:01;;;;;;;3.83;3.53;;;;;;;10.48;76.05;99377.03;682422;29;1449;-83
2021/12/29 01:13:30;;;;;;;3.92;3.55;;;;;;;10.50;75.87;99381.41;679540;28;1276;-83
2021/12/29 01:13:51;;;;;;;4.13;3.38;;;;;;;10.47;75.91;99380.53;679894;29;1063;-83
2021/12/29 01:14:11;;;;;;;4.20;3.20;;;;;;;10.50;75.91;99376.19;682097;28;1184;-83
2021/12/29 01:14:32;;;;;;;3.60;3.20;;;;;;;10.46;75.88;99382.28;678468;29;1169;-83
2021/12/29 01:14:55;;;;;;;3.90;3.60;;;;;;;10.43;75.96;99378.78;677296;29;1081;-84
2021/12/29 01:15:17;;;;;;;4.43;4.03;;;;;;;10.37;76.12;99374.38;679227;29;1554;-83
2021/12/29 01:15:57;;;;;;;4.78;4.20;;;;;;;10.37;76.06;99385.69;679677;29;1420;-85
2021/12/29 01:16:39;;;;;;;5.30;3.80;;;;;;;10.34;76.06;99390.88;679219;28;1217;-84
2021/12/29 01:16:59;;;;;;;5.22;3.88;;;;;;;10.39;75.92;99383.94;682468;28;1197;-83
2021/12/29 01:17:22;;;;;;;4.57;4.07;;;;;;;10.42;76.25;99398.75;679921;29;1116;-83
2021/12/29 01:17:42;;;;;;;5.00;4.50;;;;;;;10.28;76.18;99373.44;679828;29;1576;-84
2021/12/29 01:18:05;;;;;;;4.70;4.20;;;;;;;10.31;76.21;99377.81;675410;29;1388;-84
2021/12/29 01:18:27;;;;;;;4.57;4.05;;;;;;;10.33;76.26;99370.88;683415;28;1148;-83
2021/12/29 01:18:47;;;;;;;4.38;3.97;;;;;;;10.45;75.97;99388.31;681862;28;1978;-83
2021/12/29 01:19:18;;;;;;;4.50;4.10;;;;;;;10.47;75.83;99393.56;679734;29;1351;-83
2021/12/29 01:19:39;;;;;;;5.32;4.25;;;;;;;10.50;76.04;99383.16;679895;29;832;-83
2021/12/29 01:20:00;;;;;;;5.00;4.13;;;;;;;10.45;75.85;99382.25;678449;29;1097;-83
2021/12/29 01:20:21;;;;;;;4.70;4.00;;;;;;;10.49;76.03;99391.81;678864;29;1884;-83
2021/12/29 01:20:41;;;;;;;4.30;3.90;;;;;;;10.48;75.90;99392.69;679910;28;1265;-83
2021/12/29 01:21:04;;;;;;;4.78;4.30;;;;;;;10.46;75.76;99394.44;679595;29;1197;-83
2021/12/29 01:21:24;;;;;;;5.03;4.50;;;;;;;10.44;75.88;99390.94;679512;29;1217;-84
2021/12/29 01:21:48;;;;;;;6.38;4.63;;;;;;;10.41;75.70;99392.69;681929;29;1210;-83
2021/12/29 01:22:08;;;;;;;6.65;4.45;;;;;;;10.48;75.85;99400.53;687579;28;1330;-84
2021/12/29 01:22:29;;;;;;;5.75;4.38;;;;;;;10.47;75.96;99393.56;681287;29;1096;-83
2021/12/29 01:22:50;;;;;;;5.20;4.30;;;;;;;10.47;75.76;99397.06;683171;28;1016;-84
2021/12/29 01:23:11;;;;;;;6.00;4.68;;;;;;;10.43;75.60;99399.63;679346;29;1633;-83
2021/12/29 01:23:31;;;;;;;5.97;4.80;;;;;;;10.47;75.79;99407.50;681759;29;1347;-83
2021/12/29 01:23:52;;;;;;;5.77;4.90;;;;;;;10.41;75.91;99408.31;682315;29;1313;-83
2021/12/29 01:24:13;;;;;;;5.10;4.60;;;;;;;10.51;75.84;99411.84;679672;29;1153;-83
2021/12/29 01:24:34;;;;;;;5.20;4.70;;;;;;;10.45;75.88;99405.72;681979;29;1404;-84
2021/12/29 01:24:54;;;;;;;5.20;4.70;;;;;;;10.37;76.00;99398.72;680023;29;1494;-83
2021/12/29 01:25:15;;;;;;;5.50;4.90;;;;;;;10.38;75.74;99397.84;681213;29;1743;-83
2021/12/29 01:25:36;;;;;;;5.53;4.80;;;;;;;10.35;75.94;99397.84;682318;29;1248;-84
2021/12/29 01:25:56;;;;;;;6.50;5.00;;;;;;;10.45;75.96;99418.75;677029;29;1210;-84
2021/12/29 01:26:17;;;;;;;6.22;5.05;;;;;;;10.43;75.93;99417.91;679855;29;956;-83
2021/12/29 01:26:43;;;;;;;6.20;5.00;;;;;;;10.31;76.15;99406.50;680000;29;1176;-84
2021/12/29 01:27:05;;;;;;;5.95;4.93;;;;;;;10.40;76.23;99422.19;679798;29;1131;-84
2021/12/29 01:27:25;;;;;;;6.18;4.82;;;;;;;10.34;76.22;99414.34;676937;29;1968;-83
2021/12/29 01:27:47;;;;;;;6.40;4.87;;;;;;;10.36;76.28;99410.03;679820;29;1096;-84
2021/12/29 01:28:07;;;;;;;5.30;4.80;;;;;;;10.43;76.20;99426.56;682284;28;1399;-83
2021/12/29 01:28:28;;;;;;;4.95;4.50;;;;;;;10.45;75.94;99421.38;685073;28;1709;-83
2021/12/29 01:28:49;;;;;;;5.00;4.60;;;;;;;10.38;75.97;99415.25;682260;28;1295;-83
2021/12/29 01:29:12;;;;;;;5.13;4.63;;;;;;;10.42;76.21;99424.81;679728;29;1081;-83
2021/12/29 01:29:32;;;;;;;5.57;5.00;;;;;;;10.43;76.17;99425.72;676820;29;1113;-83
2021/12/29 01:29:53;;;;;;;5.57;5.00;;;;;;;10.40;76.07;99424.81;685020;28;1477;-83
2021/12/29 01:30:14;;;;;;;6.15;5.10;;;;;;;10.46;75.74;99430.94;681682;29;1805;-83
2021/12/29 01:30:35;;;;;;;6.50;5.20;;;;;;;10.43;75.79;99426.56;681730;29;1121;-83
2021/12/29 01:30:55;;;;;;;6.72;5.32;;;;;;;10.41;75.87;99423.97;674470;29;1158;-83
2021/12/29 01:31:16;;;;;;;6.60;5.20;;;;;;;10.51;76.04;99431.84;674382;29;1204;-83
2021/12/29 01:31:52;;;;;;;6.47;5.17;;;;;;;10.55;75.87;99441.44;679900;29;1136;-83
2021/12/29 01:32:14;;;;;;;5.78;5.05;;;;;;;10.51;75.67;99434.47;682350;29;1978;-84
2021/12/29 01:32:36;;;;;;;5.95;5.15;;;;;;;10.49;75.96;99436.16;679635;29;1197;-83
2021/12/29 01:32:57;;;;;;;6.65;5.50;;;;;;;10.51;75.79;99439.69;679483;29;1271;-84
2021/12/29 01:33:17;;;;;;;7.47;5.80;;;;;;;10.48;75.57;99434.41;674102;29;1125;-83
2021/12/29 01:33:53;;;;;;;6.50;5.80;;;;;;;10.47;75.72;99446.59;677173;29;1404;-84
2021/12/29 01:34:14;;;;;;;6.18;5.57;;;;;;;10.54;75.99;99451.00;676502;29;1493;-83
2021/12/29 01:34:35;;;;;;;6.70;5.75;;;;;;;10.44;75.73;99443.09;677073;29;1417;-84
2021/12/29 01:34:56;;;;;;;7.15;5.70;;;;;;;10.45;75.69;99447.44;679685;29;1184;-83
2021/12/29 01:35:16;;;;;;;7.28;5.60;;;;;;;10.46;76.22;99441.38;682212;29;1679;-84
2021/12/29 01:35:39;;;;;;;6.97;5.60;;;;;;;10.44;75.91;99438.75;677101;29;1097;-84
2021/12/29 01:35:59;;;;;;;6.85;5.45;;;;;;;10.48;75.84;99442.25;677121;29;1363;-83
2021/12/29 01:36:20;;;;;;;7.10;5.70;;;;;;;10.53;75.52;99445.78;679671;29;1319;-84
2021/12/29 01:36:41;;;;;;;6.57;5.43;;;;;;;10.41;75.62;99444.84;679725;29;772;-83
2021/12/29 01:37:02;;;;;;;6.95;5.80;;;;;;;10.46;75.61;99447.47;679732;29;1177;-84
2021/12/29 01:37:23;;;;;;;7.25;5.75;;;;;;;10.41;75.88;99454.38;682353;28;969;-84
2021/12/29 01:37:44;;;;;;;7.38;5.80;;;;;;;10.49;75.81;99457.03;682485;29;990;-84
2021/12/29 01:38:06;;;;;;;7.07;5.70;;;;;;;10.43;75.89;99451.78;681889;29;1533;-84
2021/12/29 01:38:26;;;;;;;6.68;5.45;;;;;;;10.45;75.83;99460.50;676999;29;1297;-84
2021/12/29 01:38:47;;;;;;;7.85;5.70;;;;;;;10.36;76.02;99446.53;682408;28;1121;-84
2021/12/29 01:39:12;;;;;;;8.20;6.00;;;;;;;10.46;76.17;99457.03;684453;28;1221;-84
2021/12/29 01:39:32;;;;;;;8.07;5.78;;;;;;;10.39;76.10;99449.16;679500;29;1298;-83
2021/12/29 01:39:53;;;;;;;7.85;5.85;;;;;;;10.47;75.75;99453.53;684752;28;1662;-83
2021/12/29 01:40:15;;;;;;;7.60;5.90;;;;;;;10.44;75.99;99454.38;677227;28;1337;-84
2021/12/29 01:40:37;;;;;;;7.97;6.18;;;;;;;10.59;75.73;99464.06;674191;29;1388;-84
2021/12/29 01:40:58;;;;;;;7.90;6.10;;;;;;;10.51;75.45;99450.97;677190;29;1256;-83
2021/12/29 01:41:19;;;;;;;8.52;6.40;;;;;;;10.51;75.68;99460.53;678449;29;1545;-83
2021/12/29 01:41:41;;;;;;;7.53;6.20;;;;;;;10.54;75.91;99461.44;679786;29;1168;-84
2021/12/29 01:42:02;;;;;;;8.07;6.15;;;;;;;10.55;75.79;99457.97;679794;29;966;-83
2021/12/29 01:42:22;;;;;;;7.75;5.93;;;;;;;10.49;75.91;99459.63;682892;28;1020;-84
2021/12/29 01:42:43;;;;;;;7.73;6.10;;;;;;;10.47;75.56;99453.53;677120;29;1239;-83
2021/12/29 01:43:05;;;;;;;7.97;6.30;;;;;;;10.50;75.75;99446.63;674678;29;1042;-84
2021/12/29 01:43:26;;;;;;;7.85;6.20;;;;;;;10.52;75.60;99457.06;678226;29;1231;-84
2021/12/29 01:43:46;;;;;;;6.97;5.75;;;;;;;10.49;75.30;99457.03;679650;29;1069;-84
2021/12/29 01:44:10;;;;;;;7.43;5.90;;;;;;;10.47;75.56;99451.81;676954;29;1556;-83
2021/12/29 01:44:31;;;;;;;8.65;6.20;;;;;;;10.49;75.48;99462.25;679755;29;1201;-84
2021/12/29 01:44:51;;;;;;;8.90;6.80;;;;;;;10.49;75.27;99462.25;679464;29;1727;-83
2021/12/29 01:45:13;;;;;;;8.70;6.37;;;;;;;10.48;75.72;99468.31;678713;29;1243;-83
2021/12/29 01:45:34;;;;;;;7.50;6.20;;;;;;;10.51;75.47;99466.63;681834;29;1239;-84
2021/12/29 01:45:55;;;;;;;6.78;5.82;;;;;;;10.58;75.40;99480.59;679472;29;2570;-84
2021/12/29 01:46:15;;;;;;;7.17;5.83;;;;;;;10.56;75.71;99469.25;674229;29;1675;-83
2021/12/29 01:46:38;;;;;;;7.27;5.97;;;;;;;10.45;75.40;99468.31;676874;29;1186;-83
2021/12/29 01:46:59;;;;;;;7.35;6.07;;;;;;;10.46;75.49;99473.56;676038;29;1407;-83
2021/12/29 01:47:28;;;;;;;7.35;6.30;;;;;;;10.48;75.51;99477.03;671600;29;1915;-83
2021/12/29 01:47:48;;;;;;;8.68;6.50;;;;;;;10.44;75.69;99470.03;682378;29;1114;-83
2021/12/29 01:48:09;;;;;;;8.40;6.47;;;;;;;10.41;75.67;99464.81;681810;29;1990;-83
2021/12/29 01:48:30;;;;;;;8.13;6.50;;;;;;;10.34;75.71;99471.72;686698;28;1383;-83
2021/12/29 01:49:03;;;;;;;8.18;6.30;;;;;;;10.32;76.05;99465.59;682294;29;1347;-83
2021/12/29 01:49:24;;;;;;;7.80;5.90;;;;;;;10.44;75.91;99484.84;679257;29;1064;-83
2021/12/29 01:49:46;;;;;;;7.07;5.70;;;;;;;10.37;76.05;99470.84;679859;29;1082;-82
2021/12/29 01:50:08;;;;;;;6.72;5.78;;;;;;;10.46;75.84;99483.09;679729;29;1390;-83
2021/12/29 01:50:31;;;;;;;7.05;5.90;;;;;;;10.42;75.87;99487.41;679587;29;1392;-84
2021/12/29 01:50:52;;;;;;;7.15;5.85;;;;;;;10.30;75.77;99477.75;674537;29;1249;-83
2021/12/29 01:51:17;;;;;;;6.90;6.00;;;;;;;10.42;76.06;99484.81;674604;29;1099;-83
2021/12/29 01:51:47;;;;;;;8.10;6.20;;;;;;;10.41;75.93;99483.94;671718;29;1782;-84
2021/12/29 01:52:13;;;;;;;8.77;6.60;;;;;;;10.39;75.83;99488.25;676997;29;1261;-83
2021/12/29 01:52:38;;;;;;;8.88;6.60;;;;;;;10.43;76.10;99493.53;676673;29;1137;-83
2021/12/29 01:53:09;;;;;;;9.02;6.20;;;;;;;10.41;75.69;99491.78;677085;29;883;-83
2021/12/29 01:53:32;;;;;;;7.30;5.90;;;;;;;10.41;75.78;99485.69;671994;29;2204;-83
2021/12/29 01:54:34;;;;;;;7.57;6.78;;;;;;;10.34;75.98;99489.97;676680;29;1570;-83
2021/12/29 01:54:55;;;;;;;7.60;6.80;;;;;;;10.36;76.17;99498.69;679272;29;1987;-83
2021/12/29 01:55:17;;;;;;;8.40;6.90;;;;;;;10.32;75.76;99502.09;679527;29;1955;-83
2021/12/29 01:55:39;;;;;;;8.48;6.93;;;;;;;10.28;75.96;99480.34;679631;29;1241;-83
2021/12/29 01:55:59;;;;;;;8.07;6.68;;;;;;;10.26;76.07;99481.22;677061;29;1189;-83